Onego Capri — V2ED7 — position and weather

sailwx.info

Track history (hours):
 
Tides and Currents Weather Stations Pressure Air Temp Water Temp Dewpoint Dewpoint Depression Visibility Wind Speed Wind Dir Waves Ship Positions

Onego Capri

Last reported at 2018-May-08 02:17 UTC. Time now 2018-May-25 10:57 UTC.
Position N 49°33' W 006°14'.
Warning: this ship's position is 17 days out of date.

Length 140 m; draft 7.4 m.

Type: Cargo ship. MMSI: 305394000.

Date/timePositionNaut miles runAvg speedWind from/ knotsBaromVisibWave heightAir tempDewpointWater temp
2018-May-08 02:17N 49°33' W 006°14'812.0
2018-May-08 01:36N 49°35' W 006°02'111.9
2018-May-08 01:30N 49°35' W 006°00'811.8
2018-May-08 00:52N 49°37' W 005°49'611.7
2018-May-08 00:21N 49°38' W 005°40'811.7
2018-May-07 23:42N 49°39' W 005°28'411.7
2018-May-07 23:23N 49°40' W 005°22'2311.4
2018-May-07 21:23N 49°45' W 004°48'511.5
2018-May-07 20:59N 49°46' W 004°41'611.4
2018-May-07 20:30N 49°47' W 004°33'611.6
2018-May-07 20:00N 49°48' W 004°24'611.8
2018-May-07 19:30N 49°49' W 004°15'711.9
2018-May-07 18:56N 49°51' W 004°05'612.2
2018-May-07 18:25N 49°52' W 003°56'612.3
2018-May-07 17:57N 49°53' W 003°47'1312.6
2018-May-07 16:56N 49°56' W 003°27'512.5
2018-May-07 16:30N 49°57' W 003°19'912.3
2018-May-07 15:48N 49°59' W 003°06'712.0
2018-May-07 15:12N 50°01' W 002°55'311.8
2018-May-07 14:59N 50°02' W 002°51'611.6
2018-May-07 14:30N 50°03' W 002°43'711.3
2018-May-07 13:55N 50°04' W 002°33'1110.8
2018-May-07 12:55N 50°07' W 002°17'910.2
2018-May-07 12:01N 50°09' W 002°03'010.2
2018-May-07 11:58N 50°09' W 002°02'510.3
2018-May-07 11:30N 50°11' W 001°55'810.5
2018-May-07 10:45N 50°13' W 001°43'411.0
2018-May-07 10:23N 50°14' W 001°37'1712.0
2018-May-07 08:56N 50°19' W 001°11'813.4
2018-May-07 08:19N 50°21' W 000°58'413.6
2018-May-07 08:00N 50°22' W 000°52'713.7
2018-May-07 07:30N 50°24' W 000°42'813.5
2018-May-07 06:56N 50°26' W 000°30'713.3
2018-May-07 06:24N 50°28' W 000°19'513.1
2018-May-07 06:00N 50°29' W 000°11'612.7
2018-May-07 05:31N 50°31' W 000°02'612.6
2018-May-07 05:00N 50°33' E 000°08'612.4
2018-May-07 04:30N 50°35' E 000°17'612.1
2018-May-07 03:58N 50°36' E 000°27'1611.2
2018-May-07 02:32N 50°45' E 000°48'711.0
2018-May-07 01:51N 50°50' E 000°58'1011.3
2018-May-07 01:00N 50°55' E 001°10'612.2
2018-May-07 00:28N 50°60' E 001°18'713.1
2018-May-06 23:55N 51°04' E 001°27'614.1
2018-May-06 23:30N 51°08' E 001°34'714.1
2018-May-06 23:00N 51°12' E 001°43'713.4
2018-May-06 22:31N 51°18' E 001°48'713.1
2018-May-06 22:01N 51°24' E 001°53'612.3
2018-May-06 21:30N 51°29' E 001°58'611.9
2018-May-06 21:00N 51°33' E 002°05'611.7
2018-May-06 20:31N 51°37' E 002°11'611.5
2018-May-06 20:00N 51°41' E 002°18'611.1
2018-May-06 19:30N 51°45' E 002°24'510.9
2018-May-06 19:00N 51°49' E 002°30'510.7
2018-May-06 18:30N 51°54' E 002°35'510.7
2018-May-06 18:00N 51°58' E 002°40'510.7
2018-May-06 17:30N 52°02' E 002°45'510.9
2018-May-06 17:00N 52°07' E 002°51'1211.5
2018-May-06 15:59N 52°16' E 003°03'612.2
2018-May-06 15:30N 52°20' E 003°09'712.5
2018-May-06 14:59N 52°26' E 003°15'612.9
2018-May-06 14:30N 52°31' E 003°21'713.0
2018-May-06 14:00N 52°36' E 003°28'1013.2
2018-May-06 13:15N 52°43' E 003°39'413.2
2018-May-06 12:57N 52°46' E 003°43'613.2
2018-May-06 12:30N 52°51' E 003°49'613.0
2018-May-06 12:00N 52°56' E 003°56'612.6
2018-May-06 11:30N 53°00' E 004°03'612.1
2018-May-06 11:00N 53°05' E 004°10'611.8
2018-May-06 10:29N 53°08' E 004°19'610.9
2018-May-06 09:58N 53°12' E 004°26'510.4
2018-May-06 09:30N 53°16' E 004°29'510.5
2018-May-06 09:00N 53°21' E 004°32'510.6
2018-May-06 08:30N 53°26' E 004°34'510.8
2018-May-06 08:01N 53°31' E 004°37'611.2
2018-May-06 07:31N 53°37' E 004°40'611.9
2018-May-06 07:00N 53°42' E 004°44'25611.7
2018-May-05 09:08N 57°22' E 008°36'210.7
2018-May-05 08:57N 57°23' E 008°39'711.2
2018-May-05 08:17N 57°26' E 008°51'310.9
2018-May-05 08:00N 57°27' E 008°57'511.0
2018-May-05 07:30N 57°29' E 009°06'611.3
2018-May-05 06:59N 57°32' E 009°16'611.3
2018-May-05 06:27N 57°34' E 009°26'511.2
2018-May-05 06:00N 57°36' E 009°35'711.1
2018-May-05 05:23N 57°39' E 009°47'411.2
2018-May-05 05:00N 57°40' E 009°55'611.1
2018-May-05 04:30N 57°42' E 010°04'611.3
2018-May-05 03:57N 57°44' E 010°15'610.8
2018-May-05 03:25N 57°45' E 010°26'510.9
2018-May-05 03:00N 57°46' E 010°34'510.9
2018-May-05 02:30N 57°47' E 010°44'5 9.5
2018-May-05 02:00N 57°43' E 010°41'2 4.2
2018-May-05 01:27N 57°41' E 010°37'0 0.0
2018-May-05 00:57N 57°41' E 010°37'0 0.0
2018-May-05 00:30N 57°41' E 010°37'0 0.0
2018-May-05 00:00N 57°41' E 010°37'0 0.0
2018-May-04 23:30N 57°41' E 010°37'0 0.0
2018-May-04 23:01N 57°41' E 010°37'0 0.0
2018-May-04 22:30N 57°41' E 010°37'0 0.0
2018-May-04 22:00N 57°41' E 010°37'0 0.0
2018-May-04 21:30N 57°41' E 010°37'0 0.0
2018-May-04 21:01N 57°41' E 010°37'0 0.0
2018-May-04 20:30N 57°41' E 010°37'0 0.0
2018-May-04 20:00N 57°41' E 010°37'0 0.0
2018-May-04 19:30N 57°41' E 010°37'0 0.0
2018-May-04 18:56N 57°41' E 010°37'0 0.1
2018-May-04 18:31N 57°41' E 010°37'2 4.0
2018-May-04 18:00N 57°40' E 010°38'4 7.2
2018-May-04 17:30N 57°38' E 010°44'611.8
2018-May-04 17:00N 57°36' E 010°54'612.2
2018-May-04 16:30N 57°33' E 011°05'612.4
2018-May-04 16:00N 57°31' E 011°15'612.1
2018-May-04 15:30N 57°29' E 011°26'612.7
2018-May-04 15:00N 57°23' E 011°30'612.6
2018-May-04 14:30N 57°17' E 011°34'612.5
2018-May-04 14:00N 57°11' E 011°38'612.5
2018-May-04 13:30N 57°05' E 011°42'612.1
2018-May-04 12:58N 56°59' E 011°46'812.0
2018-May-04 12:21N 56°52' E 011°50'511.7
2018-May-04 11:58N 56°48' E 011°53'511.5
2018-May-04 11:29N 56°43' E 011°56'611.8
2018-May-04 11:00N 56°37' E 011°58'2711.0
2018-May-04 08:33N 56°13' E 012°19'111.4
2018-May-04 08:30N 56°12' E 012°20'611.5
2018-May-04 08:01N 56°09' E 012°28'611.1
2018-May-04 07:30N 56°05' E 012°36'611.0
2018-May-04 07:00N 56°01' E 012°41'611.5
2018-May-04 06:30N 55°55' E 012°44'611.1
2018-May-04 06:00N 55°50' E 012°44'611.7
2018-May-04 05:30N 55°44' E 012°41'611.0
2018-May-04 05:00N 55°39' E 012°42'5 9.6
2018-May-04 04:27N 55°33' E 012°42'511.3
2018-May-04 03:58N 55°28' E 012°42'4210.4
2018-May-03 23:56N 54°55' E 013°29'76 9.9
2018-May-03 16:19N 53°46' E 014°23'3 9.9
2018-May-03 16:00N 53°44' E 014°26'5 9.4
2018-May-03 15:30N 53°40' E 014°31'4 9.0
2018-May-03 15:00N 53°37' E 014°35'4 8.6
2018-May-03 14:30N 53°32' E 014°38'4 8.1
2018-May-03 13:59N 53°28' E 014°36'4 7.7
2018-May-03 13:29N 53°24' E 014°37'0 0.4
2018-May-03 12:59N 53°24' E 014°36'0 0.0
2018-May-03 12:28N 53°24' E 014°36'0 0.0
2018-May-03 11:58N 53°24' E 014°36'0 0.0
2018-May-03 11:27N 53°24' E 014°36'0 0.0
2018-May-03 10:56N 53°24' E 014°36'0 0.0
2018-May-03 10:26N 53°24' E 014°36'0 0.0
2018-May-03 09:57N 53°24' E 014°36'0 0.0
2018-May-03 09:26N 53°24' E 014°36'0 0.0
2018-May-03 09:00N 53°24' E 014°36'0 0.0
2018-May-03 08:27N 53°24' E 014°36'0 0.0
2018-May-03 07:56N 53°24' E 014°36'0 0.0
2018-May-03 07:26N 53°24' E 014°36'0 0.0
2018-May-03 07:00N 53°24' E 014°36'0 0.0
2018-May-03 06:30N 53°24' E 014°36'0 0.0
2018-May-03 06:00N 53°24' E 014°36'0 0.0
2018-May-03 05:29N 53°24' E 014°36'0 0.0
2018-May-03 04:58N 53°24' E 014°36'0 0.0
2018-May-03 04:27N 53°24' E 014°36'0 0.0
2018-May-03 03:56N 53°24' E 014°36'0 0.0
2018-May-03 03:26N 53°24' E 014°36'0 0.0
2018-May-03 03:00N 53°24' E 014°36'0 0.0
2018-May-03 02:29N 53°24' E 014°36'0 0.0
2018-May-03 01:59N 53°24' E 014°36'0 0.0
2018-May-03 01:29N 53°24' E 014°36'0 0.0
2018-May-03 00:58N 53°24' E 014°36'0 0.0
2018-May-03 00:27N 53°24' E 014°36'0 0.0
2018-May-02 23:56N 53°24' E 014°36'0 0.0
2018-May-02 23:30N 53°24' E 014°36'0 0.0
2018-May-02 23:00N 53°24' E 014°36'0 0.0
2018-May-02 22:26N 53°24' E 014°36'0 0.0
2018-May-02 22:00N 53°24' E 014°36'0 0.0
2018-May-02 21:30N 53°24' E 014°36'0 0.0
2018-May-02 20:59N 53°24' E 014°36'0 0.0
2018-May-02 20:29N 53°24' E 014°36'0 0.0
2018-May-02 19:47N 53°24' E 014°36'0 0.0
2018-May-02 19:26N 53°24' E 014°36'0 0.0
2018-May-02 18:56N 53°24' E 014°36'0 0.0
2018-May-02 18:26N 53°24' E 014°36'0 0.0
2018-May-02 18:00N 53°24' E 014°36'0 0.0
2018-May-02 17:30N 53°24' E 014°36'0 0.0
2018-May-02 16:59N 53°24' E 014°36'0 0.0
2018-May-02 16:28N 53°24' E 014°36'0 0.0
2018-May-02 15:58N 53°24' E 014°36'0 0.0
2018-May-02 15:28N 53°24' E 014°36'0 0.0
2018-May-02 14:57N 53°24' E 014°36'0 0.0
2018-May-02 14:26N 53°24' E 014°36'0 0.0
2018-May-02 13:56N 53°24' E 014°36'0 0.0
2018-May-02 13:30N 53°24' E 014°36'0 0.0
2018-May-02 12:59N 53°24' E 014°36'0 0.0
2018-May-02 12:29N 53°24' E 014°36'0 0.0
2018-May-02 11:58N 53°24' E 014°36'0 0.0
2018-May-02 11:27N 53°24' E 014°36'0 0.0
2018-May-02 10:59N 53°24' E 014°36'0 0.2
2018-May-02 10:28N 53°24' E 014°37'0 0.0
2018-May-02 09:57N 53°24' E 014°37'0 0.0
2018-May-02 09:27N 53°24' E 014°37'0 0.0
2018-May-02 08:56N 53°24' E 014°37'0 0.0
2018-May-02 08:26N 53°24' E 014°37'0 0.0
2018-May-02 08:00N 53°24' E 014°37'0 0.0
2018-May-02 07:29N 53°24' E 014°37'0 0.0
2018-May-02 06:59N 53°24' E 014°37'0 0.0
2018-May-02 06:28N 53°24' E 014°37'0 0.0
2018-May-02 05:58N 53°24' E 014°37'0 0.0
2018-May-02 05:29N 53°24' E 014°37'0 0.0
2018-May-02 04:59N 53°24' E 014°37'0 0.0
2018-May-02 04:26N 53°24' E 014°37'0 0.0
2018-May-02 03:56N 53°24' E 014°37'0 0.0
2018-May-02 03:30N 53°24' E 014°37'0 0.0
2018-May-02 02:59N 53°24' E 014°37'0 0.0
2018-May-02 02:28N 53°24' E 014°37'0 0.0
2018-May-02 01:57N 53°24' E 014°37'0 0.0
2018-May-02 01:27N 53°24' E 014°37'0 0.0
2018-May-02 00:56N 53°24' E 014°37'0 0.0
2018-May-02 00:26N 53°24' E 014°37'0 0.0
2018-May-01 23:56N 53°24' E 014°37'0 0.0
2018-May-01 23:30N 53°24' E 014°37'0 0.0
2018-May-01 22:59N 53°24' E 014°37'0 0.0
2018-May-01 22:29N 53°24' E 014°37'0 0.0
2018-May-01 21:59N 53°24' E 014°37'0 0.0
2018-May-01 21:27N 53°24' E 014°37'0 0.0
2018-May-01 20:59N 53°24' E 014°37'0 0.0
2018-May-01 20:28N 53°24' E 014°37'0 0.0
2018-May-01 19:57N 53°24' E 014°37'0 0.0
2018-May-01 19:26N 53°24' E 014°37'0 0.0
2018-May-01 19:00N 53°24' E 014°37'0 0.0
2018-May-01 15:30N 53°24' E 014°37'0 0.0
2018-May-01 14:59N 53°24' E 014°37'0 0.0
2018-May-01 14:28N 53°24' E 014°37'0 0.0
2018-May-01 13:57N 53°24' E 014°37'0 0.0
2018-May-01 13:27N 53°24' E 014°37'0 0.0
2018-May-01 12:56N 53°24' E 014°37'0 0.0
2018-May-01 12:26N 53°24' E 014°37'0 0.0
2018-May-01 12:00N 53°24' E 014°37'0 0.0
2018-May-01 11:30N 53°24' E 014°37'0 0.0
2018-May-01 10:59N 53°24' E 014°37'0 0.0
2018-May-01 10:28N 53°24' E 014°37'0 0.0
2018-May-01 09:58N 53°24' E 014°37'0 0.0
2018-May-01 09:27N 53°24' E 014°37'0 0.0
2018-May-01 08:56N 53°24' E 014°37'0 0.0
2018-May-01 08:27N 53°24' E 014°37'0 0.0
2018-May-01 07:56N 53°24' E 014°37'0 0.0
2018-May-01 07:29N 53°24' E 014°37'0 0.0
2018-May-01 06:59N 53°24' E 014°37'0 0.0
2018-May-01 06:29N 53°24' E 014°37'0 0.0
2018-May-01 05:58N 53°24' E 014°37'0 0.0
2018-May-01 05:28N 53°24' E 014°37'0 0.0
2018-May-01 04:57N 53°24' E 014°37'0 0.0
2018-May-01 04:26N 53°24' E 014°37'0 0.0
2018-May-01 03:56N 53°24' E 014°37'0 0.0
2018-May-01 03:30N 53°24' E 014°37'0 0.0
2018-May-01 03:00N 53°24' E 014°37'0 0.0
2018-May-01 02:29N 53°24' E 014°37'0 0.0
2018-May-01 01:59N 53°24' E 014°37'0 0.0
2018-May-01 01:28N 53°24' E 014°37'0 0.0
2018-May-01 00:58N 53°24' E 014°37'0 0.0
2018-May-01 00:27N 53°24' E 014°37'0 0.0
2018-Apr-30 23:57N 53°24' E 014°37'0 0.0
2018-Apr-30 23:21N 53°24' E 014°37'0 0.0
2018-Apr-30 22:56N 53°24' E 014°37'0 0.0
2018-Apr-30 22:26N 53°24' E 014°37'0 0.0
2018-Apr-30 22:00N 53°24' E 014°37'0 0.0
2018-Apr-30 21:30N 53°24' E 014°37'0 0.0
2018-Apr-30 21:00N 53°24' E 014°37'0 0.0
2018-Apr-30 20:29N 53°24' E 014°37'0 0.0
2018-Apr-30 19:58N 53°24' E 014°37'0 0.0
2018-Apr-30 19:28N 53°24' E 014°37'0 0.0
2018-Apr-30 18:57N 53°24' E 014°37'0 0.0
2018-Apr-30 18:27N 53°24' E 014°37'0 0.0
2018-Apr-30 17:56N 53°24' E 014°37'0 0.0
2018-Apr-30 17:25N 53°24' E 014°37'0 0.0
2018-Apr-30 17:00N 53°24' E 014°37'0 0.0
2018-Apr-30 16:30N 53°24' E 014°37'0 0.0
2018-Apr-30 15:59N 53°24' E 014°37'0 0.0
2018-Apr-30 15:28N 53°24' E 014°37'0 0.0
2018-Apr-30 14:56N 53°24' E 014°37'0 0.0
2018-Apr-30 14:25N 53°24' E 014°37'0 0.0
2018-Apr-30 13:59N 53°24' E 014°37'0 0.0
2018-Apr-30 13:28N 53°24' E 014°37'0 0.0
2018-Apr-30 12:57N 53°24' E 014°37'0 0.0
2018-Apr-30 12:29N 53°24' E 014°37'0 0.0
2018-Apr-30 11:58N 53°24' E 014°37'0 0.0
2018-Apr-30 11:28N 53°24' E 014°37'0 0.0
2018-Apr-30 10:58N 53°24' E 014°37'0 0.0
2018-Apr-30 10:29N 53°24' E 014°37'0 0.0
2018-Apr-30 09:57N 53°24' E 014°37'0 0.0
2018-Apr-30 09:27N 53°24' E 014°37'0 0.0
2018-Apr-30 08:56N 53°24' E 014°37'0 0.0
2018-Apr-30 08:26N 53°24' E 014°37'0 0.0
2018-Apr-30 07:56N 53°24' E 014°37'0 0.0
2018-Apr-30 07:27N 53°24' E 014°37'0 0.0
2018-Apr-30 06:57N 53°24' E 014°37'0 0.0
2018-Apr-30 06:29N 53°24' E 014°37'0 0.0
2018-Apr-30 05:59N 53°24' E 014°37'0 0.0
2018-Apr-30 05:29N 53°24' E 014°37'0 0.0
2018-Apr-30 04:59N 53°24' E 014°37'0 0.0
2018-Apr-30 04:28N 53°24' E 014°37'0 0.0
2018-Apr-30 03:57N 53°24' E 014°37'0 0.0
2018-Apr-30 03:27N 53°24' E 014°37'0 0.0
2018-Apr-30 03:00N 53°24' E 014°37'0 0.0
2018-Apr-30 02:30N 53°24' E 014°37'0 0.0
2018-Apr-30 01:59N 53°24' E 014°37'0 0.0
2018-Apr-30 01:28N 53°24' E 014°37'0 0.0
2018-Apr-30 00:58N 53°24' E 014°37'0 0.0
2018-Apr-30 00:28N 53°24' E 014°37'0 0.0
2018-Apr-29 23:57N 53°24' E 014°37'0 0.0
2018-Apr-29 23:26N 53°24' E 014°37'0 0.0
2018-Apr-29 22:56N 53°24' E 014°37'0 0.0
2018-Apr-29 22:30N 53°24' E 014°37'0 0.0
2018-Apr-29 21:59N 53°24' E 014°37'0 0.0
2018-Apr-29 21:29N 53°24' E 014°37'0 0.0
2018-Apr-29 20:58N 53°24' E 014°37'0 0.0
2018-Apr-29 20:28N 53°24' E 014°37'0 0.0
2018-Apr-29 19:58N 53°24' E 014°37'0 0.0
2018-Apr-29 19:27N 53°24' E 014°37'0 0.0
2018-Apr-29 18:57N 53°24' E 014°37'0 0.0
2018-Apr-29 18:26N 53°24' E 014°37'0 0.0
2018-Apr-29 17:56N 53°24' E 014°37'0 0.0
2018-Apr-29 17:26N 53°24' E 014°37'0 0.0
2018-Apr-29 17:00N 53°24' E 014°37'0 0.0
2018-Apr-29 16:29N 53°24' E 014°37'0 0.0
2018-Apr-29 15:59N 53°24' E 014°37'0 0.0
2018-Apr-29 15:28N 53°24' E 014°37'0 0.0
2018-Apr-29 14:57N 53°24' E 014°37'0 0.0
2018-Apr-29 14:27N 53°24' E 014°37'0 0.0
2018-Apr-29 13:56N 53°24' E 014°37'0 0.0
2018-Apr-29 13:30N 53°24' E 014°37'0 0.0
2018-Apr-29 13:00N 53°24' E 014°37'0 0.0
2018-Apr-29 12:30N 53°24' E 014°37'0 0.0
2018-Apr-29 11:59N 53°24' E 014°37'0 0.0
2018-Apr-29 11:27N 53°24' E 014°37'0 0.0
2018-Apr-29 10:56N 53°24' E 014°37'0 0.0
2018-Apr-29 10:26N 53°24' E 014°37'0 0.0
2018-Apr-29 09:56N 53°24' E 014°37'0 0.0
2018-Apr-29 09:30N 53°24' E 014°37'0 0.0
2018-Apr-29 08:59N 53°24' E 014°37'0 0.0
2018-Apr-29 08:29N 53°24' E 014°37'0 0.0
2018-Apr-29 07:46N 53°24' E 014°37'0 0.0
2018-Apr-29 07:28N 53°24' E 014°37'0 0.0
2018-Apr-29 06:58N 53°24' E 014°37'0 0.0
2018-Apr-29 06:27N 53°24' E 014°37'0 0.0
2018-Apr-29 05:56N 53°24' E 014°37'0 0.0
2018-Apr-29 05:26N 53°24' E 014°37'0 0.0
2018-Apr-29 05:00N 53°24' E 014°37'0 0.0
2018-Apr-29 04:30N 53°24' E 014°37'0 0.0
2018-Apr-29 03:59N 53°24' E 014°37'0 0.0
2018-Apr-29 03:29N 53°24' E 014°37'0 0.0
2018-Apr-29 02:58N 53°24' E 014°37'0 0.0
2018-Apr-29 02:28N 53°24' E 014°37'0 0.0
2018-Apr-29 01:57N 53°24' E 014°37'0 0.0
2018-Apr-29 01:27N 53°24' E 014°37'0 0.0
2018-Apr-29 00:56N 53°24' E 014°37'0 0.0
2018-Apr-29 00:29N 53°24' E 014°37'0 0.0
2018-Apr-28 23:58N 53°24' E 014°37'0 0.0
2018-Apr-28 23:28N 53°24' E 014°37'0 0.0
2018-Apr-28 22:57N 53°24' E 014°37'0 0.0
2018-Apr-28 22:26N 53°24' E 014°37'0 0.0
2018-Apr-28 21:56N 53°24' E 014°37'0 0.0
2018-Apr-28 21:26N 53°24' E 014°37'0 0.0
2018-Apr-28 21:00N 53°24' E 014°37'0 0.0
2018-Apr-28 20:30N 53°24' E 014°37'0 0.0
2018-Apr-28 19:59N 53°24' E 014°37'0 0.0
2018-Apr-28 19:29N 53°24' E 014°37'0 0.0
2018-Apr-28 18:59N 53°24' E 014°37'0 0.0
2018-Apr-28 18:29N 53°24' E 014°37'0 0.0
2018-Apr-28 17:58N 53°24' E 014°37'0 0.0
2018-Apr-28 17:27N 53°24' E 014°37'0 0.0
2018-Apr-28 16:57N 53°24' E 014°37'0 0.0
2018-Apr-28 16:27N 53°24' E 014°37'0 0.0
2018-Apr-28 15:56N 53°24' E 014°37'0 0.0
2018-Apr-28 15:26N 53°24' E 014°37'0 0.0
2018-Apr-28 15:00N 53°24' E 014°37'0 0.0
2018-Apr-28 14:29N 53°24' E 014°37'0 0.0
2018-Apr-28 13:59N 53°24' E 014°37'0 0.0
2018-Apr-28 13:29N 53°24' E 014°37'0 0.0
2018-Apr-28 12:48N 53°24' E 014°37'0 0.0
2018-Apr-28 12:28N 53°24' E 014°37'0 0.0
2018-Apr-28 11:57N 53°24' E 014°37'0 0.0
2018-Apr-28 11:26N 53°24' E 014°37'0 0.0
2018-Apr-28 10:56N 53°24' E 014°37'0 0.0
2018-Apr-28 10:26N 53°24' E 014°37'0 0.0
2018-Apr-28 10:00N 53°24' E 014°37'0 0.0
2018-Apr-28 09:30N 53°24' E 014°37'0 0.0
2018-Apr-28 08:59N 53°24' E 014°37'0 0.0
2018-Apr-28 08:29N 53°24' E 014°37'0 0.0
2018-Apr-28 07:58N 53°24' E 014°37'0 0.0
2018-Apr-28 07:28N 53°24' E 014°37'0 0.0
2018-Apr-28 06:58N 53°24' E 014°37'0 0.0
2018-Apr-28 06:28N 53°24' E 014°37'0 0.0
2018-Apr-28 05:57N 53°24' E 014°37'0 0.0
2018-Apr-28 05:27N 53°24' E 014°37'0 0.0
2018-Apr-28 04:56N 53°24' E 014°37'0 0.0
2018-Apr-28 04:26N 53°24' E 014°37'0 0.0
2018-Apr-28 04:00N 53°24' E 014°37'0 0.0
2018-Apr-28 03:30N 53°24' E 014°37'0 0.0
2018-Apr-28 03:00N 53°24' E 014°37'0 0.0
2018-Apr-28 02:29N 53°24' E 014°37'  
Track history (hours):
 
Tides and Currents Weather Stations Pressure Air Temp Water Temp Dewpoint Dewpoint Depression Visibility Wind Speed Wind Dir Waves Ship Positions

Onego Capri

Last reported at 2018-May-08 02:17 UTC. Time now 2018-May-25 10:57 UTC.
Position N 49°33' W 006°14'.
Warning: this ship's position is 17 days out of date.

Length 140 m; draft 7.4 m.

Type: Cargo ship. MMSI: 305394000.

Date/timePositionNaut miles runAvg speedWind from/ knotsBaromVisibWave heightAir tempDewpointWater temp
2018-May-08 02:17N 49°33' W 006°14'812.0
2018-May-08 01:36N 49°35' W 006°02'111.9
2018-May-08 01:30N 49°35' W 006°00'811.8
2018-May-08 00:52N 49°37' W 005°49'611.7
2018-May-08 00:21N 49°38' W 005°40'811.7
2018-May-07 23:42N 49°39' W 005°28'411.7
2018-May-07 23:23N 49°40' W 005°22'2311.4
2018-May-07 21:23N 49°45' W 004°48'511.5
2018-May-07 20:59N 49°46' W 004°41'611.4
2018-May-07 20:30N 49°47' W 004°33'611.6
2018-May-07 20:00N 49°48' W 004°24'611.8
2018-May-07 19:30N 49°49' W 004°15'711.9
2018-May-07 18:56N 49°51' W 004°05'612.2
2018-May-07 18:25N 49°52' W 003°56'612.3
2018-May-07 17:57N 49°53' W 003°47'1312.6
2018-May-07 16:56N 49°56' W 003°27'512.5
2018-May-07 16:30N 49°57' W 003°19'912.3
2018-May-07 15:48N 49°59' W 003°06'712.0
2018-May-07 15:12N 50°01' W 002°55'311.8
2018-May-07 14:59N 50°02' W 002°51'611.6
2018-May-07 14:30N 50°03' W 002°43'711.3
2018-May-07 13:55N 50°04' W 002°33'1110.8
2018-May-07 12:55N 50°07' W 002°17'910.2
2018-May-07 12:01N 50°09' W 002°03'010.2
2018-May-07 11:58N 50°09' W 002°02'510.3
2018-May-07 11:30N 50°11' W 001°55'810.5
2018-May-07 10:45N 50°13' W 001°43'411.0
2018-May-07 10:23N 50°14' W 001°37'1712.0
2018-May-07 08:56N 50°19' W 001°11'813.4
2018-May-07 08:19N 50°21' W 000°58'413.6
2018-May-07 08:00N 50°22' W 000°52'713.7
2018-May-07 07:30N 50°24' W 000°42'813.5
2018-May-07 06:56N 50°26' W 000°30'713.3
2018-May-07 06:24N 50°28' W 000°19'513.1
2018-May-07 06:00N 50°29' W 000°11'612.7
2018-May-07 05:31N 50°31' W 000°02'612.6
2018-May-07 05:00N 50°33' E 000°08'612.4
2018-May-07 04:30N 50°35' E 000°17'612.1
2018-May-07 03:58N 50°36' E 000°27'1611.2
2018-May-07 02:32N 50°45' E 000°48'711.0
2018-May-07 01:51N 50°50' E 000°58'1011.3
2018-May-07 01:00N 50°55' E 001°10'612.2
2018-May-07 00:28N 50°60' E 001°18'713.1
2018-May-06 23:55N 51°04' E 001°27'614.1
2018-May-06 23:30N 51°08' E 001°34'714.1
2018-May-06 23:00N 51°12' E 001°43'713.4
2018-May-06 22:31N 51°18' E 001°48'713.1
2018-May-06 22:01N 51°24' E 001°53'612.3
2018-May-06 21:30N 51°29' E 001°58'611.9
2018-May-06 21:00N 51°33' E 002°05'611.7
2018-May-06 20:31N 51°37' E 002°11'611.5
2018-May-06 20:00N 51°41' E 002°18'611.1
2018-May-06 19:30N 51°45' E 002°24'510.9
2018-May-06 19:00N 51°49' E 002°30'510.7
2018-May-06 18:30N 51°54' E 002°35'510.7
2018-May-06 18:00N 51°58' E 002°40'510.7
2018-May-06 17:30N 52°02' E 002°45'510.9
2018-May-06 17:00N 52°07' E 002°51'1211.5
2018-May-06 15:59N 52°16' E 003°03'612.2
2018-May-06 15:30N 52°20' E 003°09'712.5
2018-May-06 14:59N 52°26' E 003°15'612.9
2018-May-06 14:30N 52°31' E 003°21'713.0
2018-May-06 14:00N 52°36' E 003°28'1013.2
2018-May-06 13:15N 52°43' E 003°39'413.2
2018-May-06 12:57N 52°46' E 003°43'613.2
2018-May-06 12:30N 52°51' E 003°49'613.0
2018-May-06 12:00N 52°56' E 003°56'612.6
2018-May-06 11:30N 53°00' E 004°03'612.1
2018-May-06 11:00N 53°05' E 004°10'611.8
2018-May-06 10:29N 53°08' E 004°19'610.9
2018-May-06 09:58N 53°12' E 004°26'510.4
2018-May-06 09:30N 53°16' E 004°29'510.5
2018-May-06 09:00N 53°21' E 004°32'510.6
2018-May-06 08:30N 53°26' E 004°34'510.8
2018-May-06 08:01N 53°31' E 004°37'611.2
2018-May-06 07:31N 53°37' E 004°40'611.9
2018-May-06 07:00N 53°42' E 004°44'25611.7
2018-May-05 09:08N 57°22' E 008°36'210.7
2018-May-05 08:57N 57°23' E 008°39'711.2
2018-May-05 08:17N 57°26' E 008°51'310.9
2018-May-05 08:00N 57°27' E 008°57'511.0
2018-May-05 07:30N 57°29' E 009°06'611.3
2018-May-05 06:59N 57°32' E 009°16'611.3
2018-May-05 06:27N 57°34' E 009°26'511.2
2018-May-05 06:00N 57°36' E 009°35'711.1
2018-May-05 05:23N 57°39' E 009°47'411.2
2018-May-05 05:00N 57°40' E 009°55'611.1
2018-May-05 04:30N 57°42' E 010°04'611.3
2018-May-05 03:57N 57°44' E 010°15'610.8
2018-May-05 03:25N 57°45' E 010°26'510.9
2018-May-05 03:00N 57°46' E 010°34'510.9
2018-May-05 02:30N 57°47' E 010°44'5 9.5
2018-May-05 02:00N 57°43' E 010°41'2 4.2
2018-May-05 01:27N 57°41' E 010°37'0 0.0
2018-May-05 00:57N 57°41' E 010°37'0 0.0
2018-May-05 00:30N 57°41' E 010°37'0 0.0
2018-May-05 00:00N 57°41' E 010°37'0 0.0
2018-May-04 23:30N 57°41' E 010°37'0 0.0
2018-May-04 23:01N 57°41' E 010°37'0 0.0
2018-May-04 22:30N 57°41' E 010°37'0 0.0
2018-May-04 22:00N 57°41' E 010°37'0 0.0
2018-May-04 21:30N 57°41' E 010°37'0 0.0
2018-May-04 21:01N 57°41' E 010°37'0 0.0
2018-May-04 20:30N 57°41' E 010°37'0 0.0
2018-May-04 20:00N 57°41' E 010°37'0 0.0
2018-May-04 19:30N 57°41' E 010°37'0 0.0
2018-May-04 18:56N 57°41' E 010°37'0 0.1
2018-May-04 18:31N 57°41' E 010°37'2 4.0
2018-May-04 18:00N 57°40' E 010°38'4 7.2
2018-May-04 17:30N 57°38' E 010°44'611.8
2018-May-04 17:00N 57°36' E 010°54'612.2
2018-May-04 16:30N 57°33' E 011°05'612.4
2018-May-04 16:00N 57°31' E 011°15'612.1
2018-May-04 15:30N 57°29' E 011°26'612.7
2018-May-04 15:00N 57°23' E 011°30'612.6
2018-May-04 14:30N 57°17' E 011°34'612.5
2018-May-04 14:00N 57°11' E 011°38'612.5
2018-May-04 13:30N 57°05' E 011°42'612.1
2018-May-04 12:58N 56°59' E 011°46'812.0
2018-May-04 12:21N 56°52' E 011°50'511.7
2018-May-04 11:58N 56°48' E 011°53'511.5
2018-May-04 11:29N 56°43' E 011°56'611.8
2018-May-04 11:00N 56°37' E 011°58'2711.0
2018-May-04 08:33N 56°13' E 012°19'111.4
2018-May-04 08:30N 56°12' E 012°20'611.5
2018-May-04 08:01N 56°09' E 012°28'611.1
2018-May-04 07:30N 56°05' E 012°36'611.0
2018-May-04 07:00N 56°01' E 012°41'611.5
2018-May-04 06:30N 55°55' E 012°44'611.1
2018-May-04 06:00N 55°50' E 012°44'611.7
2018-May-04 05:30N 55°44' E 012°41'611.0
2018-May-04 05:00N 55°39' E 012°42'5 9.6
2018-May-04 04:27N 55°33' E 012°42'511.3
2018-May-04 03:58N 55°28' E 012°42'4210.4
2018-May-03 23:56N 54°55' E 013°29'76 9.9
2018-May-03 16:19N 53°46' E 014°23'3 9.9
2018-May-03 16:00N 53°44' E 014°26'5 9.4
2018-May-03 15:30N 53°40' E 014°31'4 9.0
2018-May-03 15:00N 53°37' E 014°35'4 8.6
2018-May-03 14:30N 53°32' E 014°38'4 8.1
2018-May-03 13:59N 53°28' E 014°36'4 7.7
2018-May-03 13:29N 53°24' E 014°37'0 0.4
2018-May-03 12:59N 53°24' E 014°36'0 0.0
2018-May-03 12:28N 53°24' E 014°36'0 0.0
2018-May-03 11:58N 53°24' E 014°36'0 0.0
2018-May-03 11:27N 53°24' E 014°36'0 0.0
2018-May-03 10:56N 53°24' E 014°36'0 0.0
2018-May-03 10:26N 53°24' E 014°36'0 0.0
2018-May-03 09:57N 53°24' E 014°36'0 0.0
2018-May-03 09:26N 53°24' E 014°36'0 0.0
2018-May-03 09:00N 53°24' E 014°36'0 0.0
2018-May-03 08:27N 53°24' E 014°36'0 0.0
2018-May-03 07:56N 53°24' E 014°36'0 0.0
2018-May-03 07:26N 53°24' E 014°36'0 0.0
2018-May-03 07:00N 53°24' E 014°36'0 0.0
2018-May-03 06:30N 53°24' E 014°36'0 0.0
2018-May-03 06:00N 53°24' E 014°36'0 0.0
2018-May-03 05:29N 53°24' E 014°36'0 0.0
2018-May-03 04:58N 53°24' E 014°36'0 0.0
2018-May-03 04:27N 53°24' E 014°36'0 0.0
2018-May-03 03:56N 53°24' E 014°36'0 0.0
2018-May-03 03:26N 53°24' E 014°36'0 0.0
2018-May-03 03:00N 53°24' E 014°36'0 0.0
2018-May-03 02:29N 53°24' E 014°36'0 0.0
2018-May-03 01:59N 53°24' E 014°36'0 0.0
2018-May-03 01:29N 53°24' E 014°36'0 0.0
2018-May-03 00:58N 53°24' E 014°36'0 0.0
2018-May-03 00:27N 53°24' E 014°36'0 0.0
2018-May-02 23:56N 53°24' E 014°36'0 0.0
2018-May-02 23:30N 53°24' E 014°36'0 0.0
2018-May-02 23:00N 53°24' E 014°36'0 0.0
2018-May-02 22:26N 53°24' E 014°36'0 0.0
2018-May-02 22:00N 53°24' E 014°36'0 0.0
2018-May-02 21:30N 53°24' E 014°36'0 0.0
2018-May-02 20:59N 53°24' E 014°36'0 0.0
2018-May-02 20:29N 53°24' E 014°36'0 0.0
2018-May-02 19:47N 53°24' E 014°36'0 0.0
2018-May-02 19:26N 53°24' E 014°36'0 0.0
2018-May-02 18:56N 53°24' E 014°36'0 0.0
2018-May-02 18:26N 53°24' E 014°36'0 0.0
2018-May-02 18:00N 53°24' E 014°36'0 0.0
2018-May-02 17:30N 53°24' E 014°36'0 0.0
2018-May-02 16:59N 53°24' E 014°36'0 0.0
2018-May-02 16:28N 53°24' E 014°36'0 0.0
2018-May-02 15:58N 53°24' E 014°36'0 0.0
2018-May-02 15:28N 53°24' E 014°36'0 0.0
2018-May-02 14:57N 53°24' E 014°36'0 0.0
2018-May-02 14:26N 53°24' E 014°36'0 0.0
2018-May-02 13:56N 53°24' E 014°36'0 0.0
2018-May-02 13:30N 53°24' E 014°36'0 0.0
2018-May-02 12:59N 53°24' E 014°36'0 0.0
2018-May-02 12:29N 53°24' E 014°36'0 0.0
2018-May-02 11:58N 53°24' E 014°36'0 0.0
2018-May-02 11:27N 53°24' E 014°36'0 0.0
2018-May-02 10:59N 53°24' E 014°36'0 0.2
2018-May-02 10:28N 53°24' E 014°37'0 0.0
2018-May-02 09:57N 53°24' E 014°37'0 0.0
2018-May-02 09:27N 53°24' E 014°37'0 0.0
2018-May-02 08:56N 53°24' E 014°37'0 0.0
2018-May-02 08:26N 53°24' E 014°37'0 0.0
2018-May-02 08:00N 53°24' E 014°37'0 0.0
2018-May-02 07:29N 53°24' E 014°37'0 0.0
2018-May-02 06:59N 53°24' E 014°37'0 0.0
2018-May-02 06:28N 53°24' E 014°37'0 0.0
2018-May-02 05:58N 53°24' E 014°37'0 0.0
2018-May-02 05:29N 53°24' E 014°37'0 0.0
2018-May-02 04:59N 53°24' E 014°37'0 0.0
2018-May-02 04:26N 53°24' E 014°37'0 0.0
2018-May-02 03:56N 53°24' E 014°37'0 0.0
2018-May-02 03:30N 53°24' E 014°37'0 0.0
2018-May-02 02:59N 53°24' E 014°37'0 0.0
2018-May-02 02:28N 53°24' E 014°37'0 0.0
2018-May-02 01:57N 53°24' E 014°37'0 0.0
2018-May-02 01:27N 53°24' E 014°37'0 0.0
2018-May-02 00:56N 53°24' E 014°37'0 0.0
2018-May-02 00:26N 53°24' E 014°37'0 0.0
2018-May-01 23:56N 53°24' E 014°37'0 0.0
2018-May-01 23:30N 53°24' E 014°37'0 0.0
2018-May-01 22:59N 53°24' E 014°37'0 0.0
2018-May-01 22:29N 53°24' E 014°37'0 0.0
2018-May-01 21:59N 53°24' E 014°37'0 0.0
2018-May-01 21:27N 53°24' E 014°37'0 0.0
2018-May-01 20:59N 53°24' E 014°37'0 0.0
2018-May-01 20:28N 53°24' E 014°37'0 0.0
2018-May-01 19:57N 53°24' E 014°37'0 0.0
2018-May-01 19:26N 53°24' E 014°37'0 0.0
2018-May-01 19:00N 53°24' E 014°37'0 0.0
2018-May-01 15:30N 53°24' E 014°37'0 0.0
2018-May-01 14:59N 53°24' E 014°37'0 0.0
2018-May-01 14:28N 53°24' E 014°37'0 0.0
2018-May-01 13:57N 53°24' E 014°37'0 0.0
2018-May-01 13:27N 53°24' E 014°37'0 0.0
2018-May-01 12:56N 53°24' E 014°37'0 0.0
2018-May-01 12:26N 53°24' E 014°37'0 0.0
2018-May-01 12:00N 53°24' E 014°37'0 0.0
2018-May-01 11:30N 53°24' E 014°37'0 0.0
2018-May-01 10:59N 53°24' E 014°37'0 0.0
2018-May-01 10:28N 53°24' E 014°37'0 0.0
2018-May-01 09:58N 53°24' E 014°37'0 0.0
2018-May-01 09:27N 53°24' E 014°37'0 0.0
2018-May-01 08:56N 53°24' E 014°37'0 0.0
2018-May-01 08:27N 53°24' E 014°37'0 0.0
2018-May-01 07:56N 53°24' E 014°37'0 0.0
2018-May-01 07:29N 53°24' E 014°37'0 0.0
2018-May-01 06:59N 53°24' E 014°37'0 0.0
2018-May-01 06:29N 53°24' E 014°37'0 0.0
2018-May-01 05:58N 53°24' E 014°37'0 0.0
2018-May-01 05:28N 53°24' E 014°37'0 0.0
2018-May-01 04:57N 53°24' E 014°37'0 0.0
2018-May-01 04:26N 53°24' E 014°37'0 0.0
2018-May-01 03:56N 53°24' E 014°37'0 0.0
2018-May-01 03:30N 53°24' E 014°37'0 0.0
2018-May-01 03:00N 53°24' E 014°37'0 0.0
2018-May-01 02:29N 53°24' E 014°37'0 0.0
2018-May-01 01:59N 53°24' E 014°37'0 0.0
2018-May-01 01:28N 53°24' E 014°37'0 0.0
2018-May-01 00:58N 53°24' E 014°37'0 0.0
2018-May-01 00:27N 53°24' E 014°37'0 0.0
2018-Apr-30 23:57N 53°24' E 014°37'0 0.0
2018-Apr-30 23:21N 53°24' E 014°37'0 0.0
2018-Apr-30 22:56N 53°24' E 014°37'0 0.0
2018-Apr-30 22:26N 53°24' E 014°37'0 0.0
2018-Apr-30 22:00N 53°24' E 014°37'0 0.0
2018-Apr-30 21:30N 53°24' E 014°37'0 0.0
2018-Apr-30 21:00N 53°24' E 014°37'0 0.0
2018-Apr-30 20:29N 53°24' E 014°37'0 0.0
2018-Apr-30 19:58N 53°24' E 014°37'0 0.0
2018-Apr-30 19:28N 53°24' E 014°37'0 0.0
2018-Apr-30 18:57N 53°24' E 014°37'0 0.0
2018-Apr-30 18:27N 53°24' E 014°37'0 0.0
2018-Apr-30 17:56N 53°24' E 014°37'0 0.0
2018-Apr-30 17:25N 53°24' E 014°37'0 0.0
2018-Apr-30 17:00N 53°24' E 014°37'0 0.0
2018-Apr-30 16:30N 53°24' E 014°37'0 0.0
2018-Apr-30 15:59N 53°24' E 014°37'0 0.0
2018-Apr-30 15:28N 53°24' E 014°37'0 0.0
2018-Apr-30 14:56N 53°24' E 014°37'0 0.0
2018-Apr-30 14:25N 53°24' E 014°37'0 0.0
2018-Apr-30 13:59N 53°24' E 014°37'0 0.0
2018-Apr-30 13:28N 53°24' E 014°37'0 0.0
2018-Apr-30 12:57N 53°24' E 014°37'0 0.0
2018-Apr-30 12:29N 53°24' E 014°37'0 0.0
2018-Apr-30 11:58N 53°24' E 014°37'0 0.0
2018-Apr-30 11:28N 53°24' E 014°37'0 0.0
2018-Apr-30 10:58N 53°24' E 014°37'0 0.0
2018-Apr-30 10:29N 53°24' E 014°37'0 0.0
2018-Apr-30 09:57N 53°24' E 014°37'0 0.0
2018-Apr-30 09:27N 53°24' E 014°37'0 0.0
2018-Apr-30 08:56N 53°24' E 014°37'0 0.0
2018-Apr-30 08:26N 53°24' E 014°37'0 0.0
2018-Apr-30 07:56N 53°24' E 014°37'0 0.0
2018-Apr-30 07:27N 53°24' E 014°37'0 0.0
2018-Apr-30 06:57N 53°24' E 014°37'0 0.0
2018-Apr-30 06:29N 53°24' E 014°37'0 0.0
2018-Apr-30 05:59N 53°24' E 014°37'0 0.0
2018-Apr-30 05:29N 53°24' E 014°37'0 0.0
2018-Apr-30 04:59N 53°24' E 014°37'0 0.0
2018-Apr-30 04:28N 53°24' E 014°37'0 0.0
2018-Apr-30 03:57N 53°24' E 014°37'0 0.0
2018-Apr-30 03:27N 53°24' E 014°37'0 0.0
2018-Apr-30 03:00N 53°24' E 014°37'0 0.0
2018-Apr-30 02:30N 53°24' E 014°37'0 0.0
2018-Apr-30 01:59N 53°24' E 014°37'0 0.0
2018-Apr-30 01:28N 53°24' E 014°37'0 0.0
2018-Apr-30 00:58N 53°24' E 014°37'0 0.0
2018-Apr-30 00:28N 53°24' E 014°37'0 0.0
2018-Apr-29 23:57N 53°24' E 014°37'0 0.0
2018-Apr-29 23:26N 53°24' E 014°37'0 0.0
2018-Apr-29 22:56N 53°24' E 014°37'0 0.0
2018-Apr-29 22:30N 53°24' E 014°37'0 0.0
2018-Apr-29 21:59N 53°24' E 014°37'0 0.0
2018-Apr-29 21:29N 53°24' E 014°37'0 0.0
2018-Apr-29 20:58N 53°24' E 014°37'0 0.0
2018-Apr-29 20:28N 53°24' E 014°37'0 0.0
2018-Apr-29 19:58N 53°24' E 014°37'0 0.0
2018-Apr-29 19:27N 53°24' E 014°37'0 0.0
2018-Apr-29 18:57N 53°24' E 014°37'0 0.0
2018-Apr-29 18:26N 53°24' E 014°37'0 0.0
2018-Apr-29 17:56N 53°24' E 014°37'0 0.0
2018-Apr-29 17:26N 53°24' E 014°37'0 0.0
2018-Apr-29 17:00N 53°24' E 014°37'0 0.0
2018-Apr-29 16:29N 53°24' E 014°37'0 0.0
2018-Apr-29 15:59N 53°24' E 014°37'0 0.0
2018-Apr-29 15:28N 53°24' E 014°37'0 0.0
2018-Apr-29 14:57N 53°24' E 014°37'0 0.0
2018-Apr-29 14:27N 53°24' E 014°37'0 0.0
2018-Apr-29 13:56N 53°24' E 014°37'0 0.0
2018-Apr-29 13:30N 53°24' E 014°37'0 0.0
2018-Apr-29 13:00N 53°24' E 014°37'0 0.0
2018-Apr-29 12:30N 53°24' E 014°37'0 0.0
2018-Apr-29 11:59N 53°24' E 014°37'0 0.0
2018-Apr-29 11:27N 53°24' E 014°37'0 0.0
2018-Apr-29 10:56N 53°24' E 014°37'0 0.0
2018-Apr-29 10:26N 53°24' E 014°37'0 0.0
2018-Apr-29 09:56N 53°24' E 014°37'0 0.0
2018-Apr-29 09:30N 53°24' E 014°37'0 0.0
2018-Apr-29 08:59N 53°24' E 014°37'0 0.0
2018-Apr-29 08:29N 53°24' E 014°37'0 0.0
2018-Apr-29 07:46N 53°24' E 014°37'0 0.0
2018-Apr-29 07:28N 53°24' E 014°37'0 0.0
2018-Apr-29 06:58N 53°24' E 014°37'0 0.0
2018-Apr-29 06:27N 53°24' E 014°37'0 0.0
2018-Apr-29 05:56N 53°24' E 014°37'0 0.0
2018-Apr-29 05:26N 53°24' E 014°37'0 0.0
2018-Apr-29 05:00N 53°24' E 014°37'0 0.0
2018-Apr-29 04:30N 53°24' E 014°37'0 0.0
2018-Apr-29 03:59N 53°24' E 014°37'0 0.0
2018-Apr-29 03:29N 53°24' E 014°37'0 0.0
2018-Apr-29 02:58N 53°24' E 014°37'0 0.0
2018-Apr-29 02:28N 53°24' E 014°37'0 0.0
2018-Apr-29 01:57N 53°24' E 014°37'0 0.0
2018-Apr-29 01:27N 53°24' E 014°37'0 0.0
2018-Apr-29 00:56N 53°24' E 014°37'0 0.0
2018-Apr-29 00:29N 53°24' E 014°37'0 0.0
2018-Apr-28 23:58N 53°24' E 014°37'0 0.0
2018-Apr-28 23:28N 53°24' E 014°37'0 0.0
2018-Apr-28 22:57N 53°24' E 014°37'0 0.0
2018-Apr-28 22:26N 53°24' E 014°37'0 0.0
2018-Apr-28 21:56N 53°24' E 014°37'0 0.0
2018-Apr-28 21:26N 53°24' E 014°37'0 0.0
2018-Apr-28 21:00N 53°24' E 014°37'0 0.0
2018-Apr-28 20:30N 53°24' E 014°37'0 0.0
2018-Apr-28 19:59N 53°24' E 014°37'0 0.0
2018-Apr-28 19:29N 53°24' E 014°37'0 0.0
2018-Apr-28 18:59N 53°24' E 014°37'0 0.0
2018-Apr-28 18:29N 53°24' E 014°37'0 0.0
2018-Apr-28 17:58N 53°24' E 014°37'0 0.0
2018-Apr-28 17:27N 53°24' E 014°37'0 0.0
2018-Apr-28 16:57N 53°24' E 014°37'0 0.0
2018-Apr-28 16:27N 53°24' E 014°37'0 0.0
2018-Apr-28 15:56N 53°24' E 014°37'0 0.0
2018-Apr-28 15:26N 53°24' E 014°37'0 0.0
2018-Apr-28 15:00N 53°24' E 014°37'0 0.0
2018-Apr-28 14:29N 53°24' E 014°37'0 0.0
2018-Apr-28 13:59N 53°24' E 014°37'0 0.0
2018-Apr-28 13:29N 53°24' E 014°37'0 0.0
2018-Apr-28 12:48N 53°24' E 014°37'0 0.0
2018-Apr-28 12:28N 53°24' E 014°37'0 0.0
2018-Apr-28 11:57N 53°24' E 014°37'0 0.0
2018-Apr-28 11:26N 53°24' E 014°37'0 0.0
2018-Apr-28 10:56N 53°24' E 014°37'0 0.0
2018-Apr-28 10:26N 53°24' E 014°37'0 0.0
2018-Apr-28 10:00N 53°24' E 014°37'0 0.0
2018-Apr-28 09:30N 53°24' E 014°37'0 0.0
2018-Apr-28 08:59N 53°24' E 014°37'0 0.0
2018-Apr-28 08:29N 53°24' E 014°37'0 0.0
2018-Apr-28 07:58N 53°24' E 014°37'0 0.0
2018-Apr-28 07:28N 53°24' E 014°37'0 0.0
2018-Apr-28 06:58N 53°24' E 014°37'0 0.0
2018-Apr-28 06:28N 53°24' E 014°37'0 0.0
2018-Apr-28 05:57N 53°24' E 014°37'0 0.0
2018-Apr-28 05:27N 53°24' E 014°37'0 0.0
2018-Apr-28 04:56N 53°24' E 014°37'0 0.0
2018-Apr-28 04:26N 53°24' E 014°37'0 0.0
2018-Apr-28 04:00N 53°24' E 014°37'0 0.0
2018-Apr-28 03:30N 53°24' E 014°37'0 0.0
2018-Apr-28 03:00N 53°24' E 014°37'0 0.0
2018-Apr-28 02:29N 53°24' E 014°37'  

Dump ship's entire track history